sensor_id;sensor_type;location;lat;lon;timestamp;pressure;altitude;pressure_sealevel;temperature;humidity
70370;BME280;57790;51.356;-2.906;2022-12-29T00:01:26;99543.16;;;15.55;100.00
70370;BME280;57790;51.356;-2.906;2022-12-29T00:04:26;99541.59;;;15.47;100.00
70370;BME280;57790;51.356;-2.906;2022-12-29T00:07:27;99519.63;;;15.45;100.00
70370;BME280;57790;51.356;-2.906;2022-12-29T00:10:27;99524.16;;;15.44;100.00
70370;BME280;57790;51.356;-2.906;2022-12-29T00:13:27;99504.16;;;15.35;100.00
70370;BME280;57790;51.356;-2.906;2022-12-29T00:16:46;99507.88;;;15.34;100.00
70370;BME280;57790;51.356;-2.906;2022-12-29T00:19:47;99510.00;;;15.44;100.00
70370;BME280;57790;51.356;-2.906;2022-12-29T00:23:08;99498.59;;;15.37;100.00
70370;BME280;57790;51.356;-2.906;2022-12-29T00:26:27;99502.53;;;15.34;100.00
70370;BME280;57790;51.356;-2.906;2022-12-29T00:29:45;99491.53;;;15.42;100.00
70370;BME280;57790;51.356;-2.906;2022-12-29T00:33:15;99481.22;;;15.28;100.00
70370;BME280;57790;51.356;-2.906;2022-12-29T00:36:39;99480.13;;;15.35;100.00
70370;BME280;57790;51.356;-2.906;2022-12-29T00:39:41;99479.13;;;15.30;100.00
70370;BME280;57790;51.356;-2.906;2022-12-29T00:43:00;99476.25;;;15.31;100.00
70370;BME280;57790;51.356;-2.906;2022-12-29T00:46:20;99465.19;;;15.28;100.00
70370;BME280;57790;51.356;-2.906;2022-12-29T00:49:20;99462.31;;;15.29;100.00
70370;BME280;57790;51.356;-2.906;2022-12-29T00:52:32;99456.84;;;15.24;100.00
70370;BME280;57790;51.356;-2.906;2022-12-29T00:55:36;99453.34;;;15.24;100.00
70370;BME280;57790;51.356;-2.906;2022-12-29T00:58:37;99460.59;;;15.16;100.00
70370;BME280;57790;51.356;-2.906;2022-12-29T01:01:38;99467.16;;;15.21;100.00
70370;BME280;57790;51.356;-2.906;2022-12-29T01:04:39;99461.88;;;15.14;100.00
70370;BME280;57790;51.356;-2.906;2022-12-29T01:07:39;99471.97;;;15.12;100.00
70370;BME280;57790;51.356;-2.906;2022-12-29T01:10:40;99460.84;;;15.15;100.00
70370;BME280;57790;51.356;-2.906;2022-12-29T01:13:40;99470.47;;;15.16;100.00
70370;BME280;57790;51.356;-2.906;2022-12-29T01:16:42;99450.16;;;15.15;100.00
70370;BME280;57790;51.356;-2.906;2022-12-29T01:19:42;99440.06;;;15.17;100.00
70370;BME280;57790;51.356;-2.906;2022-12-29T01:22:43;99433.78;;;15.11;100.00
70370;BME280;57790;51.356;-2.906;2022-12-29T01:25:43;99432.06;;;15.17;100.00
70370;BME280;57790;51.356;-2.906;2022-12-29T01:28:45;99428.97;;;15.20;100.00
70370;BME280;57790;51.356;-2.906;2022-12-29T01:31:46;99438.66;;;15.14;100.00
70370;BME280;57790;51.356;-2.906;2022-12-29T01:34:46;99422.88;;;15.13;100.00
70370;BME280;57790;51.356;-2.906;2022-12-29T01:37:46;99422.16;;;15.06;100.00
70370;BME280;57790;51.356;-2.906;2022-12-29T01:40:47;99419.09;;;15.02;100.00
70370;BME280;57790;51.356;-2.906;2022-12-29T01:46:50;99420.88;;;15.08;100.00
70370;BME280;57790;51.356;-2.906;2022-12-29T01:49:54;99426.59;;;15.12;100.00
70370;BME280;57790;51.356;-2.906;2022-12-29T01:53:03;99429.03;;;15.13;100.00
70370;BME280;57790;51.356;-2.906;2022-12-29T01:56:09;99442.75;;;15.17;100.00
70370;BME280;57790;51.356;-2.906;2022-12-29T01:59:15;99443.13;;;15.21;100.00
70370;BME280;57790;51.356;-2.906;2022-12-29T02:02:17;99440.88;;;15.17;100.00
70370;BME280;57790;51.356;-2.906;2022-12-29T02:05:25;99438.00;;;15.19;100.00
70370;BME280;57790;51.356;-2.906;2022-12-29T02:08:29;99442.97;;;15.15;100.00
70370;BME280;57790;51.356;-2.906;2022-12-29T02:11:30;99446.84;;;15.20;100.00
70370;BME280;57790;51.356;-2.906;2022-12-29T02:14:31;99450.38;;;15.13;100.00
70370;BME280;57790;51.356;-2.906;2022-12-29T02:17:41;99452.59;;;15.16;100.00
70370;BME280;57790;51.356;-2.906;2022-12-29T02:27:40;99472.66;;;15.07;100.00
70370;BME280;57790;51.356;-2.906;2022-12-29T02:31:14;99489.63;;;15.13;100.00
70370;BME280;57790;51.356;-2.906;2022-12-29T02:41:19;99519.66;;;14.90;100.00
70370;BME280;57790;51.356;-2.906;2022-12-29T02:51:10;99542.66;;;14.84;100.00
70370;BME280;57790;51.356;-2.906;2022-12-29T02:54:12;99555.78;;;14.86;100.00
70370;BME280;57790;51.356;-2.906;2022-12-29T02:57:34;99551.97;;;14.75;100.00
70370;BME280;57790;51.356;-2.906;2022-12-29T03:00:45;99564.69;;;14.80;100.00
70370;BME280;57790;51.356;-2.906;2022-12-29T03:04:18;99567.34;;;14.80;100.00
70370;BME280;57790;51.356;-2.906;2022-12-29T03:07:23;99584.56;;;14.84;100.00
70370;BME280;57790;51.356;-2.906;2022-12-29T03:13:57;99602.47;;;14.77;100.00
70370;BME280;57790;51.356;-2.906;2022-12-29T03:20:59;99624.00;;;14.75;100.00
70370;BME280;57790;51.356;-2.906;2022-12-29T03:24:00;99634.09;;;14.73;100.00
70370;BME280;57790;51.356;-2.906;2022-12-29T03:27:03;99639.88;;;14.70;100.00
70370;BME280;57790;51.356;-2.906;2022-12-29T03:30:06;99655.28;;;14.68;100.00
70370;BME280;57790;51.356;-2.906;2022-12-29T03:33:09;99659.78;;;14.68;100.00
70370;BME280;57790;51.356;-2.906;2022-12-29T03:36:16;99653.22;;;14.70;100.00
70370;BME280;57790;51.356;-2.906;2022-12-29T03:39:18;99663.13;;;14.63;100.00
70370;BME280;57790;51.356;-2.906;2022-12-29T03:42:23;99663.28;;;14.68;100.00
70370;BME280;57790;51.356;-2.906;2022-12-29T03:45:26;99675.44;;;14.57;100.00
70370;BME280;57790;51.356;-2.906;2022-12-29T03:48:26;99668.69;;;14.62;100.00
70370;BME280;57790;51.356;-2.906;2022-12-29T03:51:26;99689.13;;;14.68;100.00
70370;BME280;57790;51.356;-2.906;2022-12-29T03:54:27;99701.28;;;14.64;100.00
70370;BME280;57790;51.356;-2.906;2022-12-29T03:57:27;99703.13;;;14.63;100.00
70370;BME280;57790;51.356;-2.906;2022-12-29T04:00:27;99707.88;;;14.61;100.00
70370;BME280;57790;51.356;-2.906;2022-12-29T04:03:28;99717.50;;;14.62;100.00
70370;BME280;57790;51.356;-2.906;2022-12-29T04:06:29;99723.66;;;14.63;100.00
70370;BME280;57790;51.356;-2.906;2022-12-29T04:09:29;99720.19;;;14.55;100.00
70370;BME280;57790;51.356;-2.906;2022-12-29T04:12:31;99732.31;;;14.51;100.00
70370;BME280;57790;51.356;-2.906;2022-12-29T04:15:31;99745.06;;;14.49;100.00
70370;BME280;57790;51.356;-2.906;2022-12-29T04:18:32;99747.28;;;14.52;100.00
70370;BME280;57790;51.356;-2.906;2022-12-29T04:21:32;99758.78;;;14.53;100.00
70370;BME280;57790;51.356;-2.906;2022-12-29T04:24:33;99771.50;;;14.51;100.00
70370;BME280;57790;51.356;-2.906;2022-12-29T04:27:33;99783.22;;;14.50;100.00
70370;BME280;57790;51.356;-2.906;2022-12-29T04:30:33;99786.69;;;14.50;100.00
70370;BME280;57790;51.356;-2.906;2022-12-29T04:33:34;99801.09;;;14.36;100.00
70370;BME280;57790;51.356;-2.906;2022-12-29T04:36:34;99806.81;;;14.40;100.00
70370;BME280;57790;51.356;-2.906;2022-12-29T04:39:35;99799.63;;;14.40;100.00
70370;BME280;57790;51.356;-2.906;2022-12-29T04:42:35;99809.25;;;14.41;100.00
70370;BME280;57790;51.356;-2.906;2022-12-29T04:45:35;99810.50;;;14.39;100.00
70370;BME280;57790;51.356;-2.906;2022-12-29T04:48:36;99818.72;;;14.37;100.00
70370;BME280;57790;51.356;-2.906;2022-12-29T04:51:36;99823.88;;;14.32;100.00
70370;BME280;57790;51.356;-2.906;2022-12-29T04:54:37;99837.00;;;14.34;100.00
70370;BME280;57790;51.356;-2.906;2022-12-29T04:57:37;99841.50;;;14.33;100.00
70370;BME280;57790;51.356;-2.906;2022-12-29T05:00:38;99847.88;;;14.32;100.00
70370;BME280;57790;51.356;-2.906;2022-12-29T05:03:38;99848.69;;;14.33;100.00
70370;BME280;57790;51.356;-2.906;2022-12-29T05:06:38;99860.56;;;14.30;100.00
70370;BME280;57790;51.356;-2.906;2022-12-29T05:09:39;99858.91;;;14.29;100.00
70370;BME280;57790;51.356;-2.906;2022-12-29T05:12:39;99861.41;;;14.24;100.00
70370;BME280;57790;51.356;-2.906;2022-12-29T05:15:40;99874.72;;;14.24;100.00
70370;BME280;57790;51.356;-2.906;2022-12-29T05:18:40;99874.72;;;14.24;100.00
70370;BME280;57790;51.356;-2.906;2022-12-29T05:21:40;99888.91;;;14.18;100.00
70370;BME280;57790;51.356;-2.906;2022-12-29T05:24:41;99901.59;;;14.16;100.00
70370;BME280;57790;51.356;-2.906;2022-12-29T05:27:41;99906.94;;;14.16;100.00
70370;BME280;57790;51.356;-2.906;2022-12-29T05:30:41;99903.84;;;14.12;100.00
70370;BME280;57790;51.356;-2.906;2022-12-29T05:33:42;99914.72;;;14.11;100.00
70370;BME280;57790;51.356;-2.906;2022-12-29T05:36:42;99912.69;;;14.13;100.00
70370;BME280;57790;51.356;-2.906;2022-12-29T05:39:42;99919.25;;;14.10;100.00
70370;BME280;57790;51.356;-2.906;2022-12-29T05:42:43;99929.09;;;14.10;100.00
70370;BME280;57790;51.356;-2.906;2022-12-29T05:45:43;99931.97;;;14.08;100.00
70370;BME280;57790;51.356;-2.906;2022-12-29T05:48:43;99940.56;;;14.10;100.00
70370;BME280;57790;51.356;-2.906;2022-12-29T05:51:44;99953.06;;;14.10;100.00
70370;BME280;57790;51.356;-2.906;2022-12-29T05:54:47;99942.81;;;14.07;100.00
70370;BME280;57790;51.356;-2.906;2022-12-29T05:57:47;99950.00;;;14.06;100.00
70370;BME280;57790;51.356;-2.906;2022-12-29T06:00:48;99960.22;;;14.03;100.00
70370;BME280;57790;51.356;-2.906;2022-12-29T06:03:48;99955.31;;;13.99;100.00
70370;BME280;57790;51.356;-2.906;2022-12-29T06:06:49;99955.31;;;14.13;100.00
70370;BME280;57790;51.356;-2.906;2022-12-29T06:09:49;99960.66;;;14.39;100.00
70370;BME280;57790;51.356;-2.906;2022-12-29T06:12:49;99968.06;;;14.64;100.00
70370;BME280;57790;51.356;-2.906;2022-12-29T06:15:50;99968.78;;;14.97;100.00
70370;BME280;57790;51.356;-2.906;2022-12-29T06:18:50;99977.41;;;15.06;100.00
70370;BME280;57790;51.356;-2.906;2022-12-29T06:21:51;99981.06;;;15.11;100.00
70370;BME280;57790;51.356;-2.906;2022-12-29T06:24:52;99980.63;;;15.21;100.00
70370;BME280;57790;51.356;-2.906;2022-12-29T06:27:53;99986.91;;;15.33;100.00
70370;BME280;57790;51.356;-2.906;2022-12-29T06:30:53;99985.50;;;15.31;100.00
70370;BME280;57790;51.356;-2.906;2022-12-29T06:33:53;99991.88;;;15.30;100.00
70370;BME280;57790;51.356;-2.906;2022-12-29T06:36:54;99995.78;;;15.27;100.00
70370;BME280;57790;51.356;-2.906;2022-12-29T06:39:54;99998.66;;;15.26;100.00
70370;BME280;57790;51.356;-2.906;2022-12-29T06:42:55;100026.63;;;15.23;100.00
70370;BME280;57790;51.356;-2.906;2022-12-29T06:45:55;100039.16;;;15.23;100.00
70370;BME280;57790;51.356;-2.906;2022-12-29T06:48:55;100042.66;;;15.23;100.00
70370;BME280;57790;51.356;-2.906;2022-12-29T06:51:56;100054.31;;;15.29;100.00
70370;BME280;57790;51.356;-2.906;2022-12-29T06:54:58;100064.41;;;15.27;100.00
70370;BME280;57790;51.356;-2.906;2022-12-29T06:57:59;100064.00;;;15.16;100.00
70370;BME280;57790;51.356;-2.906;2022-12-29T07:01:01;100058.06;;;15.21;100.00
70370;BME280;57790;51.356;-2.906;2022-12-29T07:04:02;100053.34;;;15.10;100.00
70370;BME280;57790;51.356;-2.906;2022-12-29T07:07:03;100060.34;;;15.04;100.00
70370;BME280;57790;51.356;-2.906;2022-12-29T07:10:03;100061.38;;;15.03;100.00
70370;BME280;57790;51.356;-2.906;2022-12-29T07:13:04;100064.25;;;15.08;100.00
70370;BME280;57790;51.356;-2.906;2022-12-29T07:16:08;100061.78;;;15.00;100.00
70370;BME280;57790;51.356;-2.906;2022-12-29T07:19:09;100082.13;;;14.88;100.00
70370;BME280;57790;51.356;-2.906;2022-12-29T07:22:09;100077.22;;;14.92;100.00
70370;BME280;57790;51.356;-2.906;2022-12-29T07:25:10;100079.66;;;14.86;100.00
70370;BME280;57790;51.356;-2.906;2022-12-29T07:28:10;100102.25;;;14.84;100.00
70370;BME280;57790;51.356;-2.906;2022-12-29T07:31:15;100097.13;;;14.76;100.00
70370;BME280;57790;51.356;-2.906;2022-12-29T07:34:16;100096.31;;;14.69;100.00
70370;BME280;57790;51.356;-2.906;2022-12-29T07:37:17;100094.03;;;14.99;100.00
70370;BME280;57790;51.356;-2.906;2022-12-29T07:40:17;100096.88;;;15.17;100.00
70370;BME280;57790;51.356;-2.906;2022-12-29T07:43:18;100123.56;;;15.30;100.00
70370;BME280;57790;51.356;-2.906;2022-12-29T07:46:18;100139.56;;;15.43;100.00
70370;BME280;57790;51.356;-2.906;2022-12-29T07:49:18;100134.59;;;15.54;100.00
70370;BME280;57790;51.356;-2.906;2022-12-29T07:52:19;100132.53;;;15.56;100.00
70370;BME280;57790;51.356;-2.906;2022-12-29T07:55:19;100144.91;;;15.43;100.00
70370;BME280;57790;51.356;-2.906;2022-12-29T07:58:19;100146.97;;;15.48;100.00
70370;BME280;57790;51.356;-2.906;2022-12-29T08:01:20;100143.66;;;15.46;100.00
70370;BME280;57790;51.356;-2.906;2022-12-29T08:04:23;100147.38;;;15.32;100.00
70370;BME280;57790;51.356;-2.906;2022-12-29T08:07:23;100156.44;;;15.24;100.00
70370;BME280;57790;51.356;-2.906;2022-12-29T08:10:24;100166.31;;;15.24;100.00
70370;BME280;57790;51.356;-2.906;2022-12-29T08:13:24;100161.38;;;15.21;100.00
70370;BME280;57790;51.356;-2.906;2022-12-29T08:16:25;100162.00;;;15.23;100.00
70370;BME280;57790;51.356;-2.906;2022-12-29T08:19:25;100172.88;;;15.14;100.00
70370;BME280;57790;51.356;-2.906;2022-12-29T08:22:25;100179.03;;;15.08;100.00
70370;BME280;57790;51.356;-2.906;2022-12-29T08:25:26;100189.50;;;15.03;100.00
70370;BME280;57790;51.356;-2.906;2022-12-29T08:28:27;100179.44;;;14.99;100.00
70370;BME280;57790;51.356;-2.906;2022-12-29T08:31:27;100197.09;;;15.00;100.00
70370;BME280;57790;51.356;-2.906;2022-12-29T08:34:27;100217.22;;;15.02;100.00
70370;BME280;57790;51.356;-2.906;2022-12-29T08:37:28;100210.47;;;15.06;100.00
70370;BME280;57790;51.356;-2.906;2022-12-29T08:40:28;100214.38;;;15.10;100.00
70370;BME280;57790;51.356;-2.906;2022-12-29T08:43:29;100222.16;;;15.18;100.00
70370;BME280;57790;51.356;-2.906;2022-12-29T08:46:29;100220.50;;;15.04;100.00
70370;BME280;57790;51.356;-2.906;2022-12-29T08:49:30;100224.03;;;15.05;100.00
70370;BME280;57790;51.356;-2.906;2022-12-29T08:52:30;100230.38;;;15.10;100.00
70370;BME280;57790;51.356;-2.906;2022-12-29T08:55:31;100248.25;;;15.10;100.00
70370;BME280;57790;51.356;-2.906;2022-12-29T08:58:31;100238.59;;;15.02;100.00
70370;BME280;57790;51.356;-2.906;2022-12-29T09:01:32;100239.03;;;15.06;100.00
70370;BME280;57790;51.356;-2.906;2022-12-29T09:04:33;100237.78;;;15.15;100.00
70370;BME280;57790;51.356;-2.906;2022-12-29T09:07:34;100244.56;;;15.17;100.00
70370;BME280;57790;51.356;-2.906;2022-12-29T09:10:34;100242.72;;;15.11;100.00
70370;BME280;57790;51.356;-2.906;2022-12-29T09:13:35;100247.03;;;15.06;100.00
70370;BME280;57790;51.356;-2.906;2022-12-29T09:16:35;100255.44;;;15.09;100.00
70370;BME280;57790;51.356;-2.906;2022-12-29T09:19:36;100255.88;;;15.06;100.00
70370;BME280;57790;51.356;-2.906;2022-12-29T09:22:37;100267.56;;;15.12;100.00
70370;BME280;57790;51.356;-2.906;2022-12-29T09:25:37;100268.78;;;15.03;100.00
70370;BME280;57790;51.356;-2.906;2022-12-29T09:28:38;100272.66;;;15.00;100.00
70370;BME280;57790;51.356;-2.906;2022-12-29T09:31:38;100259.31;;;15.00;100.00
70370;BME280;57790;51.356;-2.906;2022-12-29T09:34:38;100304.91;;;14.92;100.00
70370;BME280;57790;51.356;-2.906;2022-12-29T09:37:39;100316.41;;;14.99;100.00
70370;BME280;57790;51.356;-2.906;2022-12-29T09:40:39;100275.34;;;15.00;100.00
70370;BME280;57790;51.356;-2.906;2022-12-29T09:46:51;100283.34;;;15.00;100.00
70370;BME280;57790;51.356;-2.906;2022-12-29T09:50:36;100293.81;;;15.02;100.00
70370;BME280;57790;51.356;-2.906;2022-12-29T09:53:24;100315.19;;;15.02;100.00
70370;BME280;57790;51.356;-2.906;2022-12-29T09:56:26;100318.09;;;15.13;100.00
70370;BME280;57790;51.356;-2.906;2022-12-29T09:59:39;100341.66;;;15.03;100.00
70370;BME280;57790;51.356;-2.906;2022-12-29T10:02:44;100326.47;;;15.04;100.00
70370;BME280;57790;51.356;-2.906;2022-12-29T10:05:57;100316.25;;;15.14;100.00
70370;BME280;57790;51.356;-2.906;2022-12-29T10:09:25;100338.59;;;15.00;100.00
70370;BME280;57790;51.356;-2.906;2022-12-29T10:16:11;100359.19;;;15.26;100.00
70370;BME280;57790;51.356;-2.906;2022-12-29T10:25:37;100362.69;;;15.20;100.00
70370;BME280;57790;51.356;-2.906;2022-12-29T10:29:05;100352.63;;;15.22;100.00
70370;BME280;57790;51.356;-2.906;2022-12-29T10:32:13;100364.34;;;15.21;100.00
70370;BME280;57790;51.356;-2.906;2022-12-29T10:35:21;100371.53;;;15.20;100.00
70370;BME280;57790;51.356;-2.906;2022-12-29T10:38:29;100372.94;;;15.09;100.00
70370;BME280;57790;51.356;-2.906;2022-12-29T10:44:58;100371.41;;;15.61;100.00
70370;BME280;57790;51.356;-2.906;2022-12-29T10:48:03;100367.91;;;15.67;100.00
70370;BME280;57790;51.356;-2.906;2022-12-29T10:51:07;100358.66;;;15.83;100.00
70370;BME280;57790;51.356;-2.906;2022-12-29T10:57:32;100369.78;;;15.80;100.00
70370;BME280;57790;51.356;-2.906;2022-12-29T11:00:33;100373.03;;;15.75;100.00
70370;BME280;57790;51.356;-2.906;2022-12-29T11:03:40;100375.94;;;15.81;100.00
70370;BME280;57790;51.356;-2.906;2022-12-29T11:06:43;100379.00;;;15.91;100.00
70370;BME280;57790;51.356;-2.906;2022-12-29T11:09:48;100386.22;;;15.84;100.00
70370;BME280;57790;51.356;-2.906;2022-12-29T11:12:56;100385.81;;;15.80;100.00
70370;BME280;57790;51.356;-2.906;2022-12-29T11:15:57;100385.41;;;16.10;100.00
70370;BME280;57790;51.356;-2.906;2022-12-29T11:18:58;100387.44;;;16.14;100.00
70370;BME280;57790;51.356;-2.906;2022-12-29T11:22:27;100386.19;;;16.30;100.00
70370;BME280;57790;51.356;-2.906;2022-12-29T11:25:27;100384.91;;;16.52;100.00
70370;BME280;57790;51.356;-2.906;2022-12-29T11:28:28;100385.47;;;16.74;100.00
70370;BME280;57790;51.356;-2.906;2022-12-29T11:31:40;100386.63;;;16.20;100.00
70370;BME280;57790;51.356;-2.906;2022-12-29T11:34:40;100387.88;;;15.98;100.00
70370;BME280;57790;51.356;-2.906;2022-12-29T11:37:41;100390.34;;;15.80;100.00
70370;BME280;57790;51.356;-2.906;2022-12-29T11:40:42;100393.22;;;15.85;100.00
70370;BME280;57790;51.356;-2.906;2022-12-29T11:43:43;100407.59;;;15.70;100.00
70370;BME280;57790;51.356;-2.906;2022-12-29T11:46:48;100401.44;;;15.63;100.00
70370;BME280;57790;51.356;-2.906;2022-12-29T11:49:52;100395.06;;;15.64;100.00
70370;BME280;57790;51.356;-2.906;2022-12-29T11:53:20;100398.28;;;15.53;100.00
70370;BME280;57790;51.356;-2.906;2022-12-29T11:56:42;100406.50;;;15.38;100.00
70370;BME280;57790;51.356;-2.906;2022-12-29T11:59:49;100410.19;;;15.44;100.00
70370;BME280;57790;51.356;-2.906;2022-12-29T12:03:19;100421.88;;;15.30;100.00
70370;BME280;57790;51.356;-2.906;2022-12-29T12:06:21;100412.78;;;15.11;100.00
70370;BME280;57790;51.356;-2.906;2022-12-29T12:09:47;100402.91;;;15.05;100.00
70370;BME280;57790;51.356;-2.906;2022-12-29T12:13:02;100401.41;;;15.76;100.00
70370;BME280;57790;51.356;-2.906;2022-12-29T12:16:11;100385.91;;;16.58;100.00
70370;BME280;57790;51.356;-2.906;2022-12-29T12:22:31;100386.66;;;15.94;100.00
70370;BME280;57790;51.356;-2.906;2022-12-29T12:25:45;100396.88;;;16.30;100.00
70370;BME280;57790;51.356;-2.906;2022-12-29T12:28:56;100393.81;;;16.00;100.00
70370;BME280;57790;51.356;-2.906;2022-12-29T12:32:06;100396.91;;;16.17;100.00
70370;BME280;57790;51.356;-2.906;2022-12-29T12:35:12;100395.66;;;16.26;100.00
70370;BME280;57790;51.356;-2.906;2022-12-29T12:44:42;100411.69;;;16.19;100.00
70370;BME280;57790;51.356;-2.906;2022-12-29T12:55:02;100429.00;;;16.10;100.00
70370;BME280;57790;51.356;-2.906;2022-12-29T12:58:38;100428.38;;;15.82;100.00
70370;BME280;57790;51.356;-2.906;2022-12-29T13:01:42;100439.22;;;15.60;100.00
70370;BME280;57790;51.356;-2.906;2022-12-29T13:08:40;100452.09;;;15.37;100.00
70370;BME280;57790;51.356;-2.906;2022-12-29T13:18:37;100428.03;;;15.24;100.00
70370;BME280;57790;51.356;-2.906;2022-12-29T13:22:07;100419.34;;;15.08;100.00
70370;BME280;57790;51.356;-2.906;2022-12-29T13:28:55;100432.28;;;15.05;100.00
70370;BME280;57790;51.356;-2.906;2022-12-29T13:38:46;100425.50;;;15.09;100.00
70370;BME280;57790;51.356;-2.906;2022-12-29T13:41:51;100427.72;;;14.99;100.00
70370;BME280;57790;51.356;-2.906;2022-12-29T13:45:10;100432.44;;;15.03;100.00
70370;BME280;57790;51.356;-2.906;2022-12-29T13:48:34;100431.66;;;15.09;100.00
70370;BME280;57790;51.356;-2.906;2022-12-29T13:51:37;100432.50;;;15.16;100.00
70370;BME280;57790;51.356;-2.906;2022-12-29T14:01:30;100449.53;;;15.15;100.00
70370;BME280;57790;51.356;-2.906;2022-12-29T14:04:33;100461.66;;;15.11;100.00
70370;BME280;57790;51.356;-2.906;2022-12-29T14:07:38;100461.72;;;15.31;100.00
70370;BME280;57790;51.356;-2.906;2022-12-29T14:10:47;100466.88;;;15.33;100.00
70370;BME280;57790;51.356;-2.906;2022-12-29T14:13:48;100471.00;;;15.42;100.00
70370;BME280;57790;51.356;-2.906;2022-12-29T14:16:49;100464.63;;;15.36;100.00
70370;BME280;57790;51.356;-2.906;2022-12-29T14:19:53;100472.69;;;15.50;100.00
70370;BME280;57790;51.356;-2.906;2022-12-29T14:23:16;100466.84;;;15.26;100.00
70370;BME280;57790;51.356;-2.906;2022-12-29T14:26:35;100462.28;;;15.13;100.00
70370;BME280;57790;51.356;-2.906;2022-12-29T14:32:38;100467.81;;;15.05;100.00
70370;BME280;57790;51.356;-2.906;2022-12-29T14:35:44;100470.22;;;15.00;100.00
70370;BME280;57790;51.356;-2.906;2022-12-29T14:38:47;100487.06;;;15.01;100.00
70370;BME280;57790;51.356;-2.906;2022-12-29T14:41:47;100475.53;;;14.94;100.00
70370;BME280;57790;51.356;-2.906;2022-12-29T14:48:30;100479.44;;;14.91;100.00
70370;BME280;57790;51.356;-2.906;2022-12-29T14:51:35;100486.56;;;14.84;100.00
70370;BME280;57790;51.356;-2.906;2022-12-29T14:57:39;100493.03;;;14.68;100.00
70370;BME280;57790;51.356;-2.906;2022-12-29T15:00:41;100502.66;;;14.63;100.00
70370;BME280;57790;51.356;-2.906;2022-12-29T15:03:47;100510.22;;;14.59;100.00
70370;BME280;57790;51.356;-2.906;2022-12-29T15:06:50;100526.19;;;14.52;100.00
70370;BME280;57790;51.356;-2.906;2022-12-29T15:09:58;100535.59;;;14.48;100.00
70370;BME280;57790;51.356;-2.906;2022-12-29T15:13:04;100530.25;;;14.48;100.00
70370;BME280;57790;51.356;-2.906;2022-12-29T15:16:21;100530.81;;;14.44;100.00
70370;BME280;57790;51.356;-2.906;2022-12-29T15:19:23;100528.16;;;14.44;100.00
70370;BME280;57790;51.356;-2.906;2022-12-29T15:22:24;100537.72;;;14.38;100.00
70370;BME280;57790;51.356;-2.906;2022-12-29T15:25:25;100546.31;;;14.34;100.00
70370;BME280;57790;51.356;-2.906;2022-12-29T15:28:30;100536.47;;;14.34;100.00
70370;BME280;57790;51.356;-2.906;2022-12-29T15:31:46;100537.03;;;14.29;100.00
70370;BME280;57790;51.356;-2.906;2022-12-29T15:34:51;100541.53;;;14.29;100.00
70370;BME280;57790;51.356;-2.906;2022-12-29T15:37:52;100542.69;;;14.20;100.00
70370;BME280;57790;51.356;-2.906;2022-12-29T15:40:59;100549.69;;;14.21;100.00
70370;BME280;57790;51.356;-2.906;2022-12-29T15:44:14;100550.22;;;14.16;100.00
70370;BME280;57790;51.356;-2.906;2022-12-29T15:47:21;100564.13;;;14.12;100.00
70370;BME280;57790;51.356;-2.906;2022-12-29T15:50:28;100569.22;;;14.07;100.00
70370;BME280;57790;51.356;-2.906;2022-12-29T15:53:31;100575.69;;;13.97;100.00
70370;BME280;57790;51.356;-2.906;2022-12-29T15:56:32;100570.72;;;13.94;100.00
70370;BME280;57790;51.356;-2.906;2022-12-29T15:59:34;100575.03;;;13.95;100.00
70370;BME280;57790;51.356;-2.906;2022-12-29T16:02:34;100577.19;;;13.85;100.00
70370;BME280;57790;51.356;-2.906;2022-12-29T16:05:39;100576.91;;;13.80;100.00
70370;BME280;57790;51.356;-2.906;2022-12-29T16:08:39;100576.28;;;13.78;100.00
70370;BME280;57790;51.356;-2.906;2022-12-29T16:11:43;100582.34;;;13.72;100.00
70370;BME280;57790;51.356;-2.906;2022-12-29T16:14:56;100577.03;;;13.72;100.00
70370;BME280;57790;51.356;-2.906;2022-12-29T16:17:57;100577.53;;;13.61;100.00
70370;BME280;57790;51.356;-2.906;2022-12-29T16:20:58;100580.63;;;13.64;100.00
70370;BME280;57790;51.356;-2.906;2022-12-29T16:24:02;100581.19;;;13.60;100.00
70370;BME280;57790;51.356;-2.906;2022-12-29T16:27:17;100595.81;;;13.49;100.00
70370;BME280;57790;51.356;-2.906;2022-12-29T16:30:22;100598.03;;;13.46;100.00
70370;BME280;57790;51.356;-2.906;2022-12-29T16:33:43;100591.38;;;13.42;100.00
70370;BME280;57790;51.356;-2.906;2022-12-29T16:36:58;100588.47;;;13.36;100.00
70370;BME280;57790;51.356;-2.906;2022-12-29T16:46:31;100601.50;;;13.31;100.00
70370;BME280;57790;51.356;-2.906;2022-12-29T16:49:33;100602.50;;;13.30;100.00
70370;BME280;57790;51.356;-2.906;2022-12-29T16:52:34;100608.19;;;13.27;100.00
70370;BME280;57790;51.356;-2.906;2022-12-29T16:55:34;100616.56;;;13.24;100.00
70370;BME280;57790;51.356;-2.906;2022-12-29T16:58:35;100610.41;;;13.24;100.00
70370;BME280;57790;51.356;-2.906;2022-12-29T17:01:39;100619.09;;;13.18;100.00
70370;BME280;57790;51.356;-2.906;2022-12-29T17:04:39;100629.06;;;13.16;100.00
70370;BME280;57790;51.356;-2.906;2022-12-29T17:07:40;100644.22;;;13.15;100.00
70370;BME280;57790;51.356;-2.906;2022-12-29T17:10:40;100630.09;;;13.15;100.00
70370;BME280;57790;51.356;-2.906;2022-12-29T17:13:59;100637.88;;;13.16;100.00
70370;BME280;57790;51.356;-2.906;2022-12-29T17:17:00;100634.09;;;13.19;100.00
70370;BME280;57790;51.356;-2.906;2022-12-29T17:20:04;100640.09;;;13.13;100.00
70370;BME280;57790;51.356;-2.906;2022-12-29T17:23:13;100631.84;;;13.07;100.00
70370;BME280;57790;51.356;-2.906;2022-12-29T17:26:14;100633.50;;;13.08;100.00
70370;BME280;57790;51.356;-2.906;2022-12-29T17:29:29;100630.63;;;13.10;100.00
70370;BME280;57790;51.356;-2.906;2022-12-29T17:32:31;100633.84;;;13.05;100.00
70370;BME280;57790;51.356;-2.906;2022-12-29T17:35:32;100626.94;;;13.19;100.00